createdAt,value
2022-10-23T00:02:01.645Z,97235.97
2022-10-23T00:04:28.344Z,97236.53
2022-10-23T00:06:54.913Z,97247.25
2022-10-23T00:09:23.966Z,97247.78
2022-10-23T00:11:50.767Z,97233.53
2022-10-23T00:14:22.752Z,97258.22
2022-10-23T00:16:49.307Z,97257.41
2022-10-23T00:19:15.982Z,97227.34
2022-10-23T00:21:42.660Z,97227.91
2022-10-23T00:26:35.804Z,97222.00
2022-10-23T00:29:02.476Z,97224.13
2022-10-23T00:31:29.439Z,97238.06
2022-10-23T00:33:56.017Z,97212.59
2022-10-23T00:36:22.609Z,97226.28
2022-10-23T00:38:49.404Z,97226.53
2022-10-23T00:41:18.918Z,97214.19
2022-10-23T00:44:08.305Z,97229.47
2022-10-23T00:46:35.393Z,97214.97
2022-10-23T00:49:02.038Z,97243.44
2022-10-23T00:51:31.141Z,97232.97
2022-10-23T00:54:06.722Z,97250.94
2022-10-23T00:56:45.607Z,97224.13
2022-10-23T00:59:12.306Z,97253.59
2022-10-23T01:01:39.075Z,97213.34
2022-10-23T01:04:06.235Z,97222.44
2022-10-23T01:07:02.003Z,97251.69
2022-10-23T01:09:49.948Z,97241.78
2022-10-23T01:12:24.307Z,97249.78
2022-10-23T01:15:14.268Z,97253.03
2022-10-23T01:17:48.924Z,97261.63
2022-10-23T01:20:37.729Z,97246.63
2022-10-23T01:23:25.296Z,97270.50
2022-10-23T01:26:27.862Z,97244.75
2022-10-23T01:29:05.080Z,97252.53
2022-10-23T01:31:45.088Z,97234.31
2022-10-23T01:34:18.437Z,97232.16
2022-10-23T01:36:47.598Z,97224.09
2022-10-23T01:39:38.321Z,97216.88
2022-10-23T01:42:17.624Z,97197.03
2022-10-23T01:44:57.681Z,97197.25
2022-10-23T01:47:27.277Z,97216.53
2022-10-23T01:49:54.436Z,97181.13
2022-10-23T01:52:21.105Z,97236.66
2022-10-23T01:54:47.789Z,97205.25
2022-10-23T01:57:15.662Z,97199.66
2022-10-23T01:59:48.162Z,97209.78
2022-10-23T02:02:14.895Z,97228.88
2022-10-23T02:05:09.255Z,97221.38
2022-10-23T02:07:35.882Z,97200.19
2022-10-23T02:10:06.594Z,97201.00
2022-10-23T02:12:36.274Z,97174.44
2022-10-23T02:15:08.391Z,97191.84
2022-10-23T02:18:03.945Z,97183.25
2022-10-23T02:23:19.897Z,97196.09
2022-10-23T02:25:48.605Z,97167.41
2022-10-23T02:28:16.308Z,97166.03
2022-10-23T02:30:43.188Z,97176.75
2022-10-23T02:33:09.888Z,97188.53
2022-10-23T02:35:36.561Z,97171.41
2022-10-23T02:38:03.246Z,97192.06
2022-10-23T02:40:38.783Z,97195.00
2022-10-23T02:43:10.333Z,97160.97
2022-10-23T02:48:23.320Z,97179.44
2022-10-23T02:50:58.420Z,97188.78
2022-10-23T02:53:49.902Z,97187.41
2022-10-23T02:56:28.807Z,97182.31
2022-10-23T02:59:02.100Z,97163.78
2022-10-23T03:01:32.706Z,97172.59
2022-10-23T03:03:59.764Z,97161.38
2022-10-23T03:06:26.723Z,97161.56
2022-10-23T03:09:02.268Z,97165.84
2022-10-23T03:11:29.668Z,97151.94
2022-10-23T03:13:56.310Z,97180.81
2022-10-23T03:16:22.959Z,97173.28
2022-10-23T03:18:49.510Z,97177.03
2022-10-23T03:21:16.107Z,97168.94
2022-10-23T03:23:42.644Z,97167.06
2022-10-23T03:26:09.350Z,97166.84
2022-10-23T03:28:35.937Z,97176.47
2022-10-23T03:31:02.967Z,97198.41
2022-10-23T03:33:30.340Z,97177.25
2022-10-23T03:35:56.947Z,97186.38
2022-10-23T03:38:23.720Z,97176.41
2022-10-23T03:40:50.279Z,97174.03
2022-10-23T03:43:17.040Z,97143.78
2022-10-23T03:45:43.818Z,97173.38
2022-10-23T03:48:10.449Z,97169.38
2022-10-23T03:50:37.094Z,97150.59
2022-10-23T03:53:03.794Z,97167.50
2022-10-23T03:55:30.924Z,97146.59
2022-10-23T03:57:57.615Z,97167.72
2022-10-23T04:00:24.309Z,97165.31
2022-10-23T04:02:51.007Z,97138.28
2022-10-23T04:05:18.338Z,97155.63
2022-10-23T04:07:44.959Z,97143.56
2022-10-23T04:10:11.558Z,97173.28
2022-10-23T04:12:38.138Z,97164.91
2022-10-23T04:15:05.164Z,97166.75
2022-10-23T04:17:31.834Z,97173.66
2022-10-23T04:19:58.466Z,97171.75
2022-10-23T04:22:27.584Z,97146.66
2022-10-23T04:24:55.284Z,97161.69
2022-10-23T04:27:21.832Z,97174.19
2022-10-23T04:29:48.482Z,97188.88
2022-10-23T04:32:15.300Z,97188.59
2022-10-23T04:34:41.947Z,97134.50
2022-10-23T04:37:08.671Z,97146.28
2022-10-23T04:39:35.336Z,97150.25
2022-10-23T04:42:02.090Z,97153.75
2022-10-23T04:44:28.793Z,97144.28
2022-10-23T04:46:55.512Z,97145.09
2022-10-23T04:49:22.191Z,97143.78
2022-10-23T04:51:48.845Z,97124.81
2022-10-23T04:54:15.445Z,97142.59
2022-10-23T04:56:42.119Z,97136.94
2022-10-23T04:59:08.796Z,97162.66
2022-10-23T05:01:35.625Z,97144.19
2022-10-23T05:04:02.277Z,97146.63
2022-10-23T05:06:29.444Z,97167.78
2022-10-23T05:08:55.973Z,97159.16
2022-10-23T05:11:22.652Z,97126.56
2022-10-23T05:13:49.315Z,97132.91
2022-10-23T05:16:55.768Z,97138.03
2022-10-23T05:19:27.294Z,97130.81
2022-10-23T05:21:53.911Z,97138.22
2022-10-23T05:24:20.550Z,97152.88
2022-10-23T05:26:47.257Z,97147.53
2022-10-23T05:29:13.932Z,97162.19
2022-10-23T05:31:40.520Z,97175.56
2022-10-23T05:34:09.876Z,97136.84
2022-10-23T05:36:39.248Z,97129.16
2022-10-23T05:39:06.113Z,97143.00
2022-10-23T05:41:32.803Z,97134.63
2022-10-23T05:43:59.406Z,97136.25
2022-10-23T05:46:26.029Z,97134.06
2022-10-23T05:48:52.811Z,97131.59
2022-10-23T05:51:19.930Z,97151.47
2022-10-23T05:53:46.685Z,97130.34
2022-10-23T05:56:13.290Z,97151.47
2022-10-23T05:58:39.942Z,97141.94
2022-10-23T06:01:07.983Z,97143.88
2022-10-23T06:03:34.844Z,97144.75
2022-10-23T06:06:01.406Z,97165.09
2022-10-23T06:08:27.985Z,97172.81
2022-10-23T06:10:54.535Z,97161.84
2022-10-23T06:13:21.114Z,97191.09
2022-10-23T06:15:47.732Z,97148.91
2022-10-23T06:18:14.323Z,97166.13
2022-10-23T06:20:40.893Z,97135.13
2022-10-23T06:23:07.689Z,97148.63
2022-10-23T06:25:34.338Z,97170.03
2022-10-23T06:28:00.981Z,97154.25
2022-10-23T06:30:27.660Z,97168.97
2022-10-23T06:32:54.207Z,97155.34
2022-10-23T06:35:20.779Z,97152.41
2022-10-23T06:37:47.358Z,97148.69
2022-10-23T06:40:13.919Z,97152.72
2022-10-23T06:42:40.872Z,97139.63
2022-10-23T06:45:07.890Z,97118.25
2022-10-23T06:47:34.471Z,97135.41
2022-10-23T06:50:01.045Z,97133.53
2022-10-23T06:52:46.037Z,97146.16
2022-10-23T06:55:13.489Z,97131.72
2022-10-23T06:57:40.458Z,97145.94
2022-10-23T07:00:10.328Z,97146.25
2022-10-23T07:02:37.006Z,97172.78
2022-10-23T07:05:03.703Z,97152.44
2022-10-23T07:07:30.788Z,97154.88
2022-10-23T07:09:57.413Z,97174.19
2022-10-23T07:12:23.963Z,97161.34
2022-10-23T07:14:50.681Z,97155.72
2022-10-23T07:17:17.197Z,97157.34
2022-10-23T07:19:43.807Z,97136.66
2022-10-23T07:22:13.281Z,97141.19
2022-10-23T07:24:42.369Z,97138.16
2022-10-23T07:27:08.891Z,97148.03
2022-10-23T07:29:35.502Z,97150.72
2022-10-23T07:32:02.019Z,97164.63
2022-10-23T07:34:28.599Z,97155.72
2022-10-23T07:36:55.259Z,97157.50
2022-10-23T07:39:21.898Z,97165.28
2022-10-23T07:41:49.002Z,97163.63
2022-10-23T07:44:15.660Z,97157.16
2022-10-23T07:46:42.171Z,97147.63
2022-10-23T07:49:10.392Z,97152.72
2022-10-23T07:51:37.020Z,97151.34
2022-10-23T07:54:03.660Z,97147.25
2022-10-23T07:56:30.283Z,97153.13
2022-10-23T07:58:56.808Z,97145.50
2022-10-23T08:01:31.688Z,97161.28
2022-10-23T08:03:58.677Z,97124.38
2022-10-23T08:06:25.246Z,97162.00
2022-10-23T08:08:51.789Z,97149.03
2022-10-23T08:11:19.925Z,97162.94
2022-10-23T08:13:52.794Z,97149.50
2022-10-23T08:16:19.481Z,97127.94
2022-10-23T08:18:46.111Z,97121.78
2022-10-23T08:21:12.882Z,97126.41
2022-10-23T08:23:39.563Z,97142.97
2022-10-23T08:26:06.515Z,97152.88
2022-10-23T08:28:33.177Z,97125.91
2022-10-23T08:30:59.867Z,97146.22
2022-10-23T08:33:26.402Z,97149.81
2022-10-23T08:35:52.928Z,97131.06
2022-10-23T08:38:19.502Z,97117.03
2022-10-23T08:40:46.872Z,97120.97
2022-10-23T08:43:18.959Z,97118.94
2022-10-23T08:45:56.760Z,97147.91
2022-10-23T08:48:59.253Z,97105.53
2022-10-23T08:51:37.490Z,97147.16
2022-10-23T08:54:36.400Z,97129.03
2022-10-23T08:57:04.550Z,97145.06
2022-10-23T08:59:35.172Z,97114.28
2022-10-23T09:02:07.846Z,97121.84
2022-10-23T09:04:34.589Z,97131.84
2022-10-23T09:07:23.225Z,97130.06
2022-10-23T09:10:12.350Z,97111.06
2022-10-23T09:12:38.960Z,97116.56
2022-10-23T09:15:27.605Z,97131.22
2022-10-23T09:18:01.940Z,97124.94
2022-10-23T09:20:32.590Z,97128.81
2022-10-23T09:23:15.622Z,97125.81
2022-10-23T09:25:42.402Z,97116.53
2022-10-23T09:28:36.603Z,97122.78
2022-10-23T09:31:21.286Z,97129.28
2022-10-23T09:33:58.742Z,97104.94
2022-10-23T09:36:25.642Z,97119.13
2022-10-23T09:38:53.647Z,97110.47
2022-10-23T09:41:20.830Z,97103.34
2022-10-23T09:43:47.662Z,97085.59
2022-10-23T09:46:14.247Z,97097.28
2022-10-23T09:48:40.882Z,97081.44
2022-10-23T09:51:18.663Z,97110.97
2022-10-23T09:53:49.363Z,97083.56
2022-10-23T09:56:32.155Z,97080.09
2022-10-23T09:59:03.468Z,97098.22
2022-10-23T10:01:34.925Z,97116.63
2022-10-23T10:04:01.596Z,97066.03
2022-10-23T10:06:30.432Z,97084.72
2022-10-23T10:08:58.658Z,97092.66
2022-10-23T10:11:50.075Z,97081.53
2022-10-23T10:14:35.183Z,97076.22
2022-10-23T10:17:05.631Z,97091.69
2022-10-23T10:19:44.324Z,97074.72
2022-10-23T10:22:10.926Z,97049.19
2022-10-23T10:24:57.789Z,97049.88
2022-10-23T10:27:30.209Z,97055.75
2022-10-23T10:30:05.768Z,97063.69
2022-10-23T10:32:40.491Z,97068.34
2022-10-23T10:35:20.920Z,97039.66
2022-10-23T10:38:33.650Z,97060.09
2022-10-23T10:41:20.095Z,97047.75
2022-10-23T10:43:59.608Z,97055.59
2022-10-23T10:46:57.034Z,97028.56
2022-10-23T10:49:32.575Z,97032.66
2022-10-23T10:52:11.196Z,97031.44
2022-10-23T10:55:03.806Z,97019.44
2022-10-23T10:57:45.960Z,96995.19
2022-10-23T11:00:14.608Z,97016.34
2022-10-23T11:02:46.665Z,97016.75
2022-10-23T11:05:18.420Z,97022.31
2022-10-23T11:07:57.056Z,97008.31
2022-10-23T11:10:26.076Z,97021.22
2022-10-23T11:12:52.915Z,97015.66
2022-10-23T11:15:22.744Z,97036.34
2022-10-23T11:17:52.500Z,97010.84
2022-10-23T11:20:36.312Z,97008.75
2022-10-23T11:23:18.983Z,96985.44
2022-10-23T11:26:19.709Z,96975.78
2022-10-23T11:29:29.242Z,96974.25
2022-10-23T11:32:40.934Z,96982.25
2022-10-23T11:35:14.334Z,96977.38
2022-10-23T11:37:41.165Z,96971.69
2022-10-23T11:40:10.819Z,96953.31
2022-10-23T11:42:40.824Z,96985.72
2022-10-23T11:45:27.285Z,96973.22
2022-10-23T11:48:42.179Z,96958.78
2022-10-23T11:51:28.081Z,96930.84
2022-10-23T11:54:25.404Z,96943.56
2022-10-23T11:57:10.308Z,96978.00
2022-10-23T11:59:45.393Z,96958.13
2022-10-23T12:02:24.385Z,96938.44
2022-10-23T12:04:51.897Z,96934.69
2022-10-23T12:07:32.525Z,96952.66
2022-10-23T12:10:05.968Z,96898.25
2022-10-23T12:12:36.914Z,96908.47
2022-10-23T12:15:12.466Z,96920.72
2022-10-23T12:17:39.132Z,96909.38
2022-10-23T12:20:08.646Z,96893.59
2022-10-23T12:23:02.712Z,96881.19
2022-10-23T12:25:55.796Z,96899.00
2022-10-23T12:28:29.659Z,96887.66
2022-10-23T12:31:14.302Z,96884.72
2022-10-23T12:34:01.558Z,96893.59
2022-10-23T12:36:43.222Z,96868.47
2022-10-23T12:39:33.933Z,96857.63
2022-10-23T12:42:00.642Z,96877.16
2022-10-23T12:44:27.322Z,96884.72
2022-10-23T12:46:58.687Z,96864.59
2022-10-23T12:49:26.626Z,96856.34
2022-10-23T12:52:00.366Z,96855.88
2022-10-23T12:54:26.967Z,96871.31
2022-10-23T12:56:54.033Z,96838.38
2022-10-23T12:59:25.683Z,96858.59
2022-10-23T13:01:53.202Z,96850.25
2022-10-23T13:04:25.911Z,96837.13
2022-10-23T13:06:52.607Z,96840.22
2022-10-23T13:09:29.420Z,96834.88
2022-10-23T13:11:56.061Z,96839.94
2022-10-23T13:14:39.453Z,96834.03
2022-10-23T13:17:10.345Z,96841.06
2022-10-23T13:19:37.001Z,96816.22
2022-10-23T13:22:04.913Z,96836.28
2022-10-23T13:24:31.532Z,96839.38
2022-10-23T13:26:58.226Z,96823.00
2022-10-23T13:29:27.783Z,96838.13
2022-10-23T13:31:54.420Z,96837.09
2022-10-23T13:34:30.684Z,96841.97
2022-10-23T13:37:02.587Z,96818.16
2022-10-23T13:39:32.997Z,96851.28
2022-10-23T13:42:01.867Z,96813.25
2022-10-23T13:44:28.529Z,96820.63
2022-10-23T13:46:56.143Z,96811.84
2022-10-23T13:49:22.820Z,96837.16
2022-10-23T13:51:51.897Z,96801.28
2022-10-23T13:54:23.441Z,96810.72
2022-10-23T13:56:50.402Z,96799.59
2022-10-23T13:59:17.300Z,96815.00
2022-10-23T14:01:44.435Z,96817.84
2022-10-23T14:04:11.642Z,96824.31
2022-10-23T14:06:38.392Z,96806.72
2022-10-23T14:09:10.569Z,96818.09
2022-10-23T14:11:37.228Z,96826.81
2022-10-23T14:14:03.810Z,96804.91
2022-10-23T14:16:30.485Z,96808.56
2022-10-23T14:18:57.156Z,96803.91
2022-10-23T14:21:23.883Z,96799.81
2022-10-23T14:23:51.103Z,96811.38
2022-10-23T14:26:20.007Z,96821.47
2022-10-23T14:28:46.733Z,96805.81
2022-10-23T14:31:14.993Z,96817.13
2022-10-23T14:33:41.753Z,96802.03
2022-10-23T14:36:08.971Z,96782.88
2022-10-23T14:38:35.783Z,96808.69
2022-10-23T14:41:02.594Z,96810.38
2022-10-23T14:43:29.284Z,96827.13
2022-10-23T14:45:56.026Z,96806.25
2022-10-23T14:48:22.887Z,96805.78
2022-10-23T14:50:49.617Z,96804.69
2022-10-23T14:53:16.314Z,96799.09
2022-10-23T14:55:43.048Z,96797.69
2022-10-23T14:58:09.634Z,96791.13
2022-10-23T15:00:36.212Z,96777.25
2022-10-23T15:03:02.791Z,96790.06
2022-10-23T15:05:29.671Z,96782.84
2022-10-23T15:07:56.457Z,96813.13
2022-10-23T15:10:23.115Z,96794.31
2022-10-23T15:12:49.816Z,96786.91
2022-10-23T15:15:16.482Z,96774.16
2022-10-23T15:17:43.124Z,96799.41
2022-10-23T15:20:10.318Z,96790.81
2022-10-23T15:22:36.854Z,96777.25
2022-10-23T15:25:03.557Z,96795.06
2022-10-23T15:27:30.175Z,96774.75
2022-10-23T15:29:56.796Z,96733.50
2022-10-23T15:32:23.334Z,96768.56
2022-10-23T15:34:49.920Z,96766.53
2022-10-23T15:37:16.477Z,96751.72
2022-10-23T15:39:43.150Z,96758.69
2022-10-23T15:42:09.900Z,96752.69
2022-10-23T15:44:36.773Z,96757.84
2022-10-23T15:47:03.506Z,96762.06
2022-10-23T15:49:30.023Z,96737.97
2022-10-23T15:51:56.795Z,96759.44
2022-10-23T15:54:23.394Z,96764.84
2022-10-23T15:56:51.586Z,96750.84
2022-10-23T15:59:18.981Z,96753.63
2022-10-23T16:01:45.798Z,96759.03
2022-10-23T16:04:12.673Z,96740.72
2022-10-23T16:06:39.399Z,96760.19
2022-10-23T16:09:06.073Z,96751.44
2022-10-23T16:11:35.135Z,96742.22
2022-10-23T16:14:01.758Z,96758.16
2022-10-23T16:16:28.464Z,96745.41
2022-10-23T16:18:55.259Z,96749.72
2022-10-23T16:21:26.786Z,96780.31
2022-10-23T16:23:54.936Z,96739.13
2022-10-23T16:26:21.787Z,96767.50
2022-10-23T16:28:51.880Z,96745.00
2022-10-23T16:31:20.288Z,96733.72
2022-10-23T16:33:50.799Z,96769.09
2022-10-23T16:36:17.737Z,96764.41
2022-10-23T16:38:44.625Z,96762.66
2022-10-23T16:41:11.409Z,96724.28
2022-10-23T16:43:38.348Z,96759.28
2022-10-23T16:46:08.961Z,96763.06
2022-10-23T16:48:35.978Z,96723.44
2022-10-23T16:51:07.349Z,96762.06
2022-10-23T16:53:34.049Z,96768.41
2022-10-23T16:56:00.975Z,96777.97
2022-10-23T16:58:27.905Z,96763.13
2022-10-23T17:01:08.617Z,96777.44
2022-10-23T17:03:40.046Z,96775.63
2022-10-23T17:06:08.854Z,96748.13
2022-10-23T17:08:37.069Z,96755.88
2022-10-23T17:11:24.069Z,96767.78
2022-10-23T17:13:55.715Z,96757.72
2022-10-23T17:16:46.735Z,96764.72
2022-10-23T17:19:20.990Z,96782.06
2022-10-23T17:22:02.116Z,96751.50
2022-10-23T17:24:28.908Z,96763.56
2022-10-23T17:26:55.501Z,96768.78
2022-10-23T17:29:31.884Z,96796.78
2022-10-23T17:31:58.550Z,96777.03
2022-10-23T17:34:31.526Z,96776.84
2022-10-23T17:36:58.211Z,96756.47
2022-10-23T17:39:26.583Z,96775.88
2022-10-23T17:41:58.905Z,96751.81
2022-10-23T17:44:25.776Z,96752.88
2022-10-23T17:46:53.163Z,96757.59
2022-10-23T17:49:23.764Z,96740.00
2022-10-23T17:51:54.856Z,96745.50
2022-10-23T17:54:23.081Z,96754.53
2022-10-23T17:56:49.798Z,96747.59
2022-10-23T17:59:16.952Z,96751.38
2022-10-23T18:01:43.652Z,96751.28
2022-10-23T18:04:10.449Z,96779.22
2022-10-23T18:06:44.525Z,96768.41
2022-10-23T18:09:11.531Z,96779.91
2022-10-23T18:11:43.838Z,96758.13
2022-10-23T18:14:14.714Z,96771.25
2022-10-23T18:16:44.994Z,96753.56
2022-10-23T18:19:11.637Z,96777.56
2022-10-23T18:21:40.317Z,96784.56
2022-10-23T18:24:07.100Z,96773.84
2022-10-23T18:26:33.900Z,96788.00
2022-10-23T18:29:00.645Z,96780.63
2022-10-23T18:31:27.893Z,96774.72
2022-10-23T18:34:02.202Z,96779.16
2022-10-23T18:36:30.940Z,96797.56
2022-10-23T18:38:57.695Z,96795.69
2022-10-23T18:41:24.444Z,96757.69
2022-10-23T18:43:51.730Z,96769.69
2022-10-23T18:46:20.682Z,96780.88
2022-10-23T18:48:47.621Z,96747.59
2022-10-23T18:51:27.853Z,96769.88
2022-10-23T18:53:54.673Z,96767.06
2022-10-23T18:56:24.822Z,96756.88
2022-10-23T18:58:55.600Z,96762.09
2022-10-23T19:01:22.928Z,96748.00
2022-10-23T19:03:49.783Z,96736.56
2022-10-23T19:06:16.775Z,96744.28
2022-10-23T19:08:44.063Z,96765.88
2022-10-23T19:11:11.303Z,96756.38
2022-10-23T19:13:39.248Z,96743.06
2022-10-23T19:16:31.093Z,96753.19
2022-10-23T19:19:27.100Z,96754.47
2022-10-23T19:22:12.236Z,96720.09
2022-10-23T19:25:03.414Z,96717.09
2022-10-23T19:27:48.809Z,96725.88
2022-10-23T19:30:33.950Z,96720.84
2022-10-23T19:33:19.349Z,96730.66
2022-10-23T19:36:06.519Z,96733.34
2022-10-23T19:38:53.174Z,96738.53
2022-10-23T19:41:41.447Z,96720.25
2022-10-23T19:44:27.265Z,96717.75
2022-10-23T19:47:12.797Z,96697.88
2022-10-23T19:49:57.915Z,96730.66
2022-10-23T19:52:43.157Z,96739.44
2022-10-23T19:55:28.549Z,96739.16
2022-10-23T19:58:13.861Z,96734.84
2022-10-23T20:00:59.314Z,96754.03
2022-10-23T20:03:44.700Z,96725.47
2022-10-23T20:06:31.895Z,96729.84
2022-10-23T20:09:20.279Z,96749.25
2022-10-23T20:12:05.738Z,96713.50
2022-10-23T20:14:51.131Z,96735.69
2022-10-23T20:17:36.660Z,96772.94
2022-10-23T20:20:21.903Z,96753.13
2022-10-23T20:23:07.349Z,96758.53
2022-10-23T20:25:52.466Z,96771.94
2022-10-23T20:28:38.096Z,96786.09
2022-10-23T20:31:24.471Z,96755.75
2022-10-23T20:34:10.044Z,96768.72
2022-10-23T20:36:55.365Z,96776.22
2022-10-23T20:39:41.034Z,96781.31
2022-10-23T20:42:26.286Z,96822.69
2022-10-23T20:45:11.644Z,96780.81
2022-10-23T20:47:57.059Z,96794.50
2022-10-23T20:50:42.182Z,96774.69
2022-10-23T20:53:27.723Z,96778.88
2022-10-23T20:56:17.768Z,96806.88
2022-10-23T20:59:04.950Z,96818.19
2022-10-23T21:01:51.661Z,96821.94
2022-10-23T21:04:37.044Z,96824.06
2022-10-23T21:07:22.835Z,96834.25
2022-10-23T21:10:08.624Z,96846.03
2022-10-23T21:12:53.847Z,96873.75
2022-10-23T21:15:39.505Z,96846.66
2022-10-23T21:18:40.980Z,96844.66
2022-10-23T21:21:30.105Z,96830.03
2022-10-23T21:24:16.196Z,96884.63
2022-10-23T21:27:01.580Z,96859.84
2022-10-23T21:29:47.048Z,96874.75
2022-10-23T21:32:32.585Z,96901.34
2022-10-23T21:35:17.797Z,96904.34
2022-10-23T21:38:03.495Z,96911.03
2022-10-23T21:40:48.869Z,96883.75
2022-10-23T21:43:34.195Z,96912.16
2022-10-23T21:46:19.874Z,96869.72
2022-10-23T21:49:05.142Z,96903.06
2022-10-23T21:51:50.769Z,96878.03
2022-10-23T21:54:35.985Z,96863.84
2022-10-23T21:57:21.580Z,96868.25
2022-10-23T22:00:07.656Z,96863.94
2022-10-23T22:02:52.848Z,96878.84
2022-10-23T22:05:38.245Z,96856.56
2022-10-23T22:08:23.761Z,96902.06
2022-10-23T22:11:09.089Z,96906.25
2022-10-23T22:13:54.692Z,96917.53
2022-10-23T22:16:40.135Z,96940.06
2022-10-23T22:19:25.599Z,96927.44
2022-10-23T22:22:11.046Z,96899.97
2022-10-23T22:24:56.349Z,96928.03
2022-10-23T22:27:41.891Z,96908.66
2022-10-23T22:30:27.176Z,96904.44
2022-10-23T22:33:12.603Z,96918.16
2022-10-23T22:36:04.914Z,96926.44
2022-10-23T22:38:50.466Z,96875.22
2022-10-23T22:41:35.800Z,96921.13
2022-10-23T22:44:21.063Z,96936.44
2022-10-23T22:47:06.557Z,96920.84
2022-10-23T22:49:51.933Z,96930.13
2022-10-23T22:52:37.235Z,96940.84
2022-10-23T22:55:22.648Z,96943.25
2022-10-23T22:58:09.922Z,96933.84
2022-10-23T23:01:02.596Z,96934.81
2022-10-23T23:03:48.162Z,96978.63
2022-10-23T23:06:34.527Z,96959.06
2022-10-23T23:09:19.784Z,96985.34
2022-10-23T23:12:06.165Z,96944.84
2022-10-23T23:14:51.084Z,96970.84
2022-10-23T23:17:36.761Z,96988.06
2022-10-23T23:20:22.156Z,96976.66
2022-10-23T23:23:07.663Z,96992.25
2022-10-23T23:25:53.023Z,97006.25
2022-10-23T23:28:38.655Z,96999.44
2022-10-23T23:31:24.602Z,97016.66
2022-10-23T23:34:10.317Z,97006.66
2022-10-23T23:36:55.516Z,96983.03
2022-10-23T23:39:41.072Z,97011.66
2022-10-23T23:42:26.462Z,96989.03
2022-10-23T23:45:14.654Z,97021.25
2022-10-23T23:48:00.357Z,97008.69
2022-10-23T23:50:45.916Z,97034.28
2022-10-23T23:53:31.481Z,97030.75
2022-10-23T23:56:16.908Z,97023.97
2022-10-23T23:59:02.068Z,97043.63
